Time;durP1;ratioP1;P1;durP2;ratioP2;P2;SDS_P1;SDS_P2;PMS_P1;PMS_P2;Temp;Humidity;BMP_temperature;BMP_pressure;BME280_temperature;BME280_humidity;BME280_pressure;Samples;Min_cycle;Max_cycle;Signal;HPM_P1;HPM_P2
2023/02/24 00:01:53;;;;;;;28.05;5.30;;;2.30;99.90;;;;;;4947022;28;20558;-59
2023/02/24 00:04:20;;;;;;;14.13;4.65;;;2.40;99.90;;;;;;4930569;29;20507;-59
2023/02/24 00:06:47;;;;;;;22.50;6.20;;;2.30;99.90;;;;;;4948222;28;20039;-59
2023/02/24 00:09:15;;;;;;;27.95;6.18;;;2.20;99.90;;;;;;4936376;29;20134;-59
2023/02/24 00:11:47;;;;;;;11.90;3.78;;;2.20;99.90;;;;;;4947333;29;20617;-58
2023/02/24 00:14:14;;;;;;;13.45;3.72;;;2.20;99.90;;;;;;4948632;29;20494;-58
2023/02/24 00:16:42;;;;;;;29.02;4.53;;;2.20;99.90;;;;;;4948825;29;20047;-58
2023/02/24 00:19:16;;;;;;;19.15;4.95;;;2.10;99.90;;;;;;4949058;29;20043;-57
2023/02/24 00:21:43;;;;;;;16.10;4.18;;;2.10;99.90;;;;;;4929852;29;20465;-59
2023/02/24 00:24:10;;;;;;;20.23;5.32;;;2.10;99.90;;;;;;4931622;29;20085;-59
2023/02/24 00:26:37;;;;;;;19.80;5.13;;;2.10;99.90;;;;;;4942062;29;20425;-60
2023/02/24 00:29:05;;;;;;;18.92;4.72;;;2.00;99.90;;;;;;4935834;29;20094;-55
2023/02/24 00:31:32;;;;;;;20.30;4.22;;;2.00;99.90;;;;;;4950526;28;20133;-59
2023/02/24 00:34:00;;;;;;;24.58;4.72;;;1.90;99.90;;;;;;4950139;28;20074;-57
2023/02/24 00:36:28;;;;;;;28.45;4.50;;;1.90;99.90;;;;;;4930234;29;20142;-58
2023/02/24 00:38:56;;;;;;;15.02;5.30;;;1.80;99.90;;;;;;4946291;29;20075;-59
2023/02/24 00:41:30;;;;;;;20.48;4.43;;;1.70;99.90;;;;;;4946893;29;21260;-58
2023/02/24 00:44:04;;;;;;;28.33;5.43;;;1.80;99.90;;;;;;4946640;29;20141;-57
2023/02/24 00:46:38;;;;;;;21.42;4.85;;;1.70;99.90;;;;;;4946748;28;20138;-59
2023/02/24 00:49:11;;;;;;;17.88;4.22;;;1.70;99.90;;;;;;4947647;28;20051;-58
2023/02/24 00:51:40;;;;;;;19.30;4.32;;;1.70;99.90;;;;;;4948623;29;20082;-58
2023/02/24 00:54:07;;;;;;;16.58;5.00;;;1.70;99.90;;;;;;4947953;29;20515;-60
2023/02/24 00:56:33;;;;;;;20.98;4.78;;;1.70;99.90;;;;;;4934854;28;20053;-59
2023/02/24 00:59:00;;;;;;;17.20;5.57;;;1.70;99.90;;;;;;4955558;28;20118;-59
2023/02/24 01:01:31;;;;;;;21.17;5.05;;;1.70;99.90;;;;;;4961511;28;20108;-56
2023/02/24 01:04:04;;;;;;;15.30;4.88;;;1.60;99.90;;;;;;4937021;29;20059;-58
2023/02/24 01:06:32;;;;;;;20.38;5.13;;;1.60;99.90;;;;;;4948723;29;20047;-58
2023/02/24 01:08:59;;;;;;;22.10;5.53;;;1.60;99.90;;;;;;4951150;28;20043;-58
2023/02/24 01:14:17;;;;;;;23.20;5.57;;;1.50;99.90;;;;;;4947778;29;20106;-58
2023/02/24 01:16:49;;;;;;;17.15;5.25;;;1.50;99.90;;;;;;4948087;29;20538;-57
2023/02/24 01:19:16;;;;;;;18.60;5.93;;;1.50;99.90;;;;;;4947700;29;20083;-58
2023/02/24 01:21:44;;;;;;;16.10;4.65;;;1.50;99.90;;;;;;4948827;29;20082;-58
2023/02/24 01:24:14;;;;;;;11.93;3.67;;;1.40;99.90;;;;;;4947747;29;20059;-58
2023/02/24 01:26:41;;;;;;;17.70;4.07;;;1.40;99.90;;;;;;4947738;29;20154;-59
2023/02/24 01:29:08;;;;;;;17.85;4.95;;;1.40;99.90;;;;;;4930426;29;21080;-58
2023/02/24 01:31:41;;;;;;;18.27;5.65;;;1.40;99.90;;;;;;4941186;29;20118;-59
2023/02/24 01:34:09;;;;;;;22.50;5.43;;;1.50;99.90;;;;;;4935756;29;20051;-56
2023/02/24 01:36:36;;;;;;;22.00;6.20;;;1.40;99.90;;;;;;4930496;29;20146;-59
2023/02/24 01:39:09;;;;;;;10.95;4.10;;;1.50;99.90;;;;;;4953071;28;20358;-57
2023/02/24 01:41:42;;;;;;;19.02;4.65;;;1.50;99.90;;;;;;4599869;29;9999881;-58
2023/02/24 01:44:12;;;;;;;18.55;5.35;;;1.40;99.90;;;;;;4958129;28;20118;-59
2023/02/24 01:46:40;;;;;;;17.00;5.10;;;1.40;99.90;;;;;;4947402;29;20047;-59
2023/02/24 01:49:12;;;;;;;20.90;4.55;;;1.30;99.90;;;;;;4948232;29;20051;-58
2023/02/24 01:51:44;;;;;;;16.33;4.80;;;1.40;99.90;;;;;;4947772;29;20179;-59
2023/02/24 01:54:12;;;;;;;10.85;3.85;;;1.40;99.90;;;;;;4933781;28;20130;-58
2023/02/24 01:56:40;;;;;;;20.60;5.15;;;1.30;99.90;;;;;;4932025;29;20047;-59
2023/02/24 01:59:07;;;;;;;12.70;3.92;;;1.40;99.90;;;;;;4930802;29;20414;-58
2023/02/24 02:01:39;;;;;;;19.40;5.05;;;1.40;99.90;;;;;;4914453;29;20086;-58
2023/02/24 02:04:16;;;;;;;11.73;3.92;;;1.40;99.90;;;;;;4935127;28;20093;-58
2023/02/24 02:06:44;;;;;;;18.45;5.03;;;1.30;99.90;;;;;;4919331;29;20051;-57
2023/02/24 02:09:12;;;;;;;19.23;4.93;;;1.30;99.90;;;;;;4915102;29;20508;-59
2023/02/24 02:11:47;;;;;;;18.17;4.78;;;1.30;99.90;;;;;;4947435;29;20049;-58
2023/02/24 02:14:15;;;;;;;13.05;4.45;;;1.30;99.90;;;;;;4947416;29;20125;-57
2023/02/24 02:16:45;;;;;;;14.15;4.40;;;1.30;99.90;;;;;;4947437;29;20044;-59
2023/02/24 02:19:45;;;;;;;23.58;4.97;;;1.30;99.90;;;;;;4940729;29;20048;-57
2023/02/24 02:22:25;;;;;;;15.70;4.53;;;1.30;99.90;;;;;;4947121;29;20249;-58
2023/02/24 02:24:55;;;;;;;23.85;4.38;;;1.30;99.90;;;;;;4938441;28;20074;-59
2023/02/24 02:27:40;;;;;;;13.32;4.35;;;1.30;99.90;;;;;;4937671;29;20075;-58
2023/02/24 02:30:30;;;;;;;19.48;3.83;;;1.30;99.90;;;;;;4942108;28;20051;-58
2023/02/24 02:33:05;;;;;;;15.10;4.95;;;1.30;99.90;;;;;;4951568;28;20094;-55
2023/02/24 02:35:59;;;;;;;29.55;4.13;;;1.30;99.90;;;;;;4946017;28;20081;-58
2023/02/24 02:38:43;;;;;;;22.03;4.43;;;1.30;99.90;;;;;;4921367;29;20481;-59
2023/02/24 02:41:16;;;;;;;23.70;5.13;;;1.30;99.90;;;;;;4917070;29;20055;-57
2023/02/24 02:44:06;;;;;;;21.02;4.78;;;1.30;99.90;;;;;;4933787;29;20573;-59
2023/02/24 02:46:40;;;;;;;18.05;3.90;;;1.30;99.90;;;;;;4925801;28;20062;-59
2023/02/24 02:49:20;;;;;;;;;;;1.30;99.90;;;;;;4918912;29;20328;-59
2023/02/24 02:51:52;;;;;;;11.40;4.43;;;1.30;99.90;;;;;;4965192;28;20093;-58
2023/02/24 02:54:19;;;;;;;17.20;3.92;;;1.20;99.90;;;;;;4948129;29;20051;-59
2023/02/24 02:56:52;;;;;;;15.68;4.00;;;1.30;99.90;;;;;;4950894;29;20051;-59
2023/02/24 02:59:22;;;;;;;12.65;4.03;;;1.20;99.90;;;;;;4918539;29;20467;-58
2023/02/24 03:01:49;;;;;;;15.55;5.13;;;1.20;99.90;;;;;;4917655;29;20507;-60
2023/02/24 03:04:17;;;;;;;17.77;4.53;;;1.20;99.90;;;;;;4943363;29;20051;-59
2023/02/24 03:07:02;;;;;;;14.63;4.57;;;1.20;99.90;;;;;;4934351;29;20106;-57
2023/02/24 03:09:31;;;;;;;38.40;5.45;;;1.20;99.90;;;;;;4950664;29;20087;-58
2023/02/24 03:12:09;;;;;;;15.43;5.25;;;1.30;99.90;;;;;;4950800;29;20146;-59
2023/02/24 03:14:38;;;;;;;24.20;4.82;;;1.30;99.90;;;;;;4917815;29;20195;-58
2023/02/24 03:17:08;;;;;;;16.90;5.65;;;1.30;99.90;;;;;;4933595;29;20139;-58
2023/02/24 03:19:37;;;;;;;21.90;4.03;;;1.20;99.90;;;;;;4917571;29;20098;-58
2023/02/24 03:22:16;;;;;;;11.38;3.50;;;1.20;99.90;;;;;;4919348;28;20145;-58
2023/02/24 03:24:43;;;;;;;22.38;4.18;;;1.30;99.90;;;;;;4917725;29;20498;-58
2023/02/24 03:27:21;;;;;;;24.65;5.57;;;1.30;99.90;;;;;;4933076;29;20048;-58
2023/02/24 03:29:49;;;;;;;22.15;6.18;;;1.30;99.90;;;;;;4932835;29;20077;-58
2023/02/24 03:32:20;;;;;;;22.80;4.72;;;1.20;99.90;;;;;;4943884;28;20493;-58
2023/02/24 03:35:13;;;;;;;15.98;4.03;;;1.20;99.90;;;;;;4934622;28;20562;-58
2023/02/24 03:37:40;;;;;;;16.70;4.28;;;1.20;99.90;;;;;;4937909;28;20311;-59
2023/02/24 03:40:10;;;;;;;13.77;4.55;;;1.20;99.90;;;;;;4932013;29;20525;-59
2023/02/24 03:42:39;;;;;;;18.65;4.20;;;1.20;99.90;;;;;;4949806;28;20058;-59
2023/02/24 03:45:06;;;;;;;21.17;6.03;;;1.20;99.90;;;;;;4931816;29;20321;-59
2023/02/24 03:47:33;;;;;;;18.05;3.60;;;1.10;99.90;;;;;;4940210;29;20061;-59
2023/02/24 03:50:00;;;;;;;20.42;4.45;;;1.10;99.90;;;;;;4948488;29;20053;-60
2023/02/24 03:52:48;;;;;;;19.42;4.10;;;1.20;99.90;;;;;;4961973;28;20510;-59
2023/02/24 03:55:33;;;;;;;14.95;4.45;;;1.00;99.90;;;;;;4953756;28;20051;-59
2023/02/24 03:58:13;;;;;;;21.33;4.38;;;1.10;99.90;;;;;;4929869;29;20507;-58
2023/02/24 04:00:39;;;;;;;13.80;4.93;;;1.10;99.90;;;;;;4950944;28;20051;-59
2023/02/24 04:03:28;;;;;;;25.00;6.00;;;1.10;99.90;;;;;;4942927;29;20047;-59
2023/02/24 04:06:23;;;;;;;9.68;3.90;;;1.10;99.90;;;;;;4947410;28;20520;-58
2023/02/24 04:09:16;;;;;;;16.25;4.25;;;1.20;99.90;;;;;;4948390;29;20047;-59
2023/02/24 04:11:47;;;;;;;25.75;5.53;;;1.20;99.90;;;;;;4880654;29;20055;-58
2023/02/24 04:14:50;;;;;;;19.80;5.25;;;1.20;99.90;;;;;;4955616;28;20051;-59
2023/02/24 04:17:31;;;;;;;13.75;4.32;;;1.20;99.90;;;;;;4906628;29;20538;-58
2023/02/24 04:19:59;;;;;;;13.40;3.85;;;1.20;99.90;;;;;;4947057;29;20079;-57
2023/02/24 04:22:26;;;;;;;16.23;3.78;;;1.20;99.90;;;;;;4933027;28;20047;-58
2023/02/24 04:24:56;;;;;;;21.17;5.50;;;1.30;99.90;;;;;;4931784;29;20126;-58
2023/02/24 04:27:23;;;;;;;9.05;3.42;;;1.10;99.90;;;;;;4931681;29;20078;-59
2023/02/24 04:29:52;;;;;;;12.32;3.85;;;1.10;99.90;;;;;;4931343;29;20058;-55
2023/02/24 04:32:23;;;;;;;20.23;4.57;;;1.10;99.90;;;;;;4937535;29;20069;-58
2023/02/24 04:34:49;;;;;;;13.48;3.38;;;1.20;99.90;;;;;;4916453;29;20055;-57
2023/02/24 04:37:21;;;;;;;22.73;4.60;;;1.20;99.90;;;;;;4948367;29;20050;-58
2023/02/24 04:39:49;;;;;;;13.60;4.32;;;1.30;99.90;;;;;;4947081;28;20055;-58
2023/02/24 04:42:18;;;;;;;11.48;3.72;;;1.40;99.90;;;;;;4949868;28;20105;-57
2023/02/24 04:44:45;;;;;;;15.70;4.57;;;1.30;99.90;;;;;;4948505;29;20157;-58
2023/02/24 04:47:12;;;;;;;23.35;5.95;;;1.40;99.90;;;;;;4946854;28;20485;-59
2023/02/24 04:49:40;;;;;;;16.08;4.10;;;1.40;99.90;;;;;;4931125;29;20086;-58
2023/02/24 04:52:08;;;;;;;12.85;3.20;;;1.40;99.90;;;;;;4947534;29;20051;-58
2023/02/24 04:54:35;;;;;;;15.60;4.00;;;1.40;99.90;;;;;;4942419;29;20051;-58
2023/02/24 04:57:02;;;;;;;11.45;3.85;;;1.50;99.90;;;;;;4945607;29;20054;-63
2023/02/24 04:59:29;;;;;;;22.23;4.32;;;1.60;99.90;;;;;;4948874;28;20061;-58
2023/02/24 05:02:00;;;;;;;21.00;4.38;;;1.60;99.90;;;;;;4956234;28;20142;-58
2023/02/24 05:04:28;;;;;;;12.70;3.53;;;1.60;99.90;;;;;;4953165;28;20055;-58
2023/02/24 05:06:56;;;;;;;19.15;4.25;;;1.60;99.90;;;;;;4948404;29;20383;-59
2023/02/24 05:09:23;;;;;;;20.23;4.05;;;1.70;99.90;;;;;;4947497;29;20086;-59
2023/02/24 05:11:51;;;;;;;16.67;4.95;;;1.70;99.90;;;;;;4956149;28;20047;-58
2023/02/24 05:14:19;;;;;;;20.17;4.82;;;1.80;99.90;;;;;;4930764;29;20098;-58
2023/02/24 05:16:47;;;;;;;13.93;4.65;;;1.90;99.90;;;;;;4930509;28;20050;-59
2023/02/24 05:22:05;;;;;;;21.00;3.90;;;2.00;99.90;;;;;;4947656;29;20043;-59
2023/02/24 05:24:33;;;;;;;23.95;4.18;;;2.10;99.90;;;;;;4931321;29;20051;-59
2023/02/24 05:27:02;;;;;;;17.00;6.20;;;2.10;99.90;;;;;;4916673;29;20069;-58
2023/02/24 05:29:33;;;;;;;11.80;3.22;;;2.20;99.90;;;;;;4950437;28;20130;-58
2023/02/24 05:32:01;;;;;;;16.25;3.70;;;2.20;99.90;;;;;;4950167;28;20134;-59
2023/02/24 05:34:29;;;;;;;15.55;3.88;;;2.20;99.90;;;;;;4947214;29;20051;-59
2023/02/24 05:36:57;;;;;;;19.90;5.32;;;2.30;99.90;;;;;;4942202;29;20059;-58
2023/02/24 05:39:25;;;;;;;16.50;3.92;;;2.30;99.90;;;;;;4947721;29;20141;-57
2023/02/24 05:41:56;;;;;;;18.98;3.70;;;2.30;99.90;;;;;;4950226;28;20391;-58
2023/02/24 05:44:24;;;;;;;19.17;4.50;;;2.30;99.90;;;;;;4947357;28;20139;-55
2023/02/24 05:46:57;;;;;;;12.60;3.95;;;2.40;99.90;;;;;;4947923;29;20093;-58
2023/02/24 05:49:31;;;;;;;18.70;4.57;;;2.40;99.90;;;;;;4951149;28;20058;-60
2023/02/24 05:51:59;;;;;;;;;;;2.40;99.90;;;;;;4947959;29;20187;-58
2023/02/24 05:54:37;;;;;;;13.32;4.15;;;2.50;99.90;;;;;;4930242;29;19922;-61
2023/02/24 05:57:10;;;;;;;15.85;4.07;;;2.50;99.90;;;;;;4961843;28;20051;-59
2023/02/24 05:59:38;;;;;;;15.95;4.00;;;2.50;99.90;;;;;;4938380;28;20048;-58
2023/02/24 06:02:12;;;;;;;18.33;5.18;;;2.50;99.90;;;;;;4951827;29;20130;-60
2023/02/24 06:04:49;;;;;;;14.00;3.35;;;2.50;99.90;;;;;;4952879;28;20157;-58
2023/02/24 06:07:18;;;;;;;13.60;3.33;;;2.50;99.90;;;;;;4918619;29;20044;-58
2023/02/24 06:09:49;;;;;;;13.93;5.38;;;2.60;99.90;;;;;;4948898;29;20057;-58
2023/02/24 06:12:16;;;;;;;16.75;4.05;;;2.60;99.90;;;;;;4945364;29;20071;-57
2023/02/24 06:14:46;;;;;;;15.55;4.00;;;2.60;99.90;;;;;;4952246;29;20123;-58
2023/02/24 06:17:17;;;;;;;26.90;7.85;;;3.10;99.90;;;;;;4951394;29;20051;-58
2023/02/24 06:19:45;;;;;;;12.32;5.05;;;2.80;99.90;;;;;;4952229;29;20051;-58
2023/02/24 06:22:13;;;;;;;22.85;4.63;;;2.80;99.90;;;;;;4951301;29;20513;-58
2023/02/24 06:24:43;;;;;;;14.75;4.35;;;2.80;99.90;;;;;;4910974;29;20046;-58
2023/02/24 06:27:18;;;;;;;17.33;4.43;;;2.80;99.90;;;;;;4956935;28;20051;-59
2023/02/24 06:29:48;;;;;;;22.98;4.72;;;2.90;99.90;;;;;;4960484;28;20043;-58
2023/02/24 06:32:16;;;;;;;12.18;3.92;;;2.90;99.90;;;;;;4958968;28;20106;-56
2023/02/24 06:34:43;;;;;;;29.52;5.65;;;2.80;99.90;;;;;;4963141;28;20051;-58
2023/02/24 06:37:11;;;;;;;21.20;4.55;;;2.80;99.90;;;;;;4952314;29;20055;-59
2023/02/24 06:39:38;;;;;;;13.20;4.22;;;2.80;99.90;;;;;;4951777;29;20053;-60
2023/02/24 06:42:07;;;;;;;19.25;2.97;;;2.80;99.90;;;;;;4933900;29;20082;-56
2023/02/24 06:44:38;;;;;;;25.80;4.70;;;2.80;99.90;;;;;;4951263;29;20078;-58
2023/02/24 06:47:06;;;;;;;18.02;3.75;;;2.80;99.90;;;;;;4951376;29;20051;-57
2023/02/24 06:49:33;;;;;;;15.57;3.13;;;2.70;99.90;;;;;;4941706;29;20079;-58
2023/02/24 06:52:00;;;;;;;24.35;4.05;;;2.70;99.90;;;;;;4931635;29;20047;-58
2023/02/24 06:54:29;;;;;;;25.73;5.78;;;2.80;99.90;;;;;;4930255;29;20043;-59
2023/02/24 06:56:57;;;;;;;13.75;3.13;;;2.80;99.90;;;;;;4929463;29;21537;-58
2023/02/24 06:59:27;;;;;;;20.45;4.07;;;2.80;99.90;;;;;;4949799;29;20402;-57
2023/02/24 07:01:54;;;;;;;14.00;3.90;;;2.90;99.90;;;;;;4946413;29;20146;-58
2023/02/24 07:04:23;;;;;;;12.50;3.88;;;2.90;99.90;;;;;;4943990;29;20070;-58
2023/02/24 07:07:01;;;;;;;14.82;4.28;;;2.90;99.90;;;;;;4949943;29;20066;-58
2023/02/24 07:09:29;;;;;;;17.23;3.17;;;3.00;99.90;;;;;;4927853;29;20047;-58
2023/02/24 07:11:57;;;;;;;32.03;3.58;;;3.00;99.90;;;;;;4931625;29;20050;-57
2023/02/24 07:14:25;;;;;;;16.88;4.63;;;3.10;99.90;;;;;;4940785;28;20047;-58
2023/02/24 07:16:56;;;;;;;28.80;4.65;;;3.10;99.90;;;;;;4945065;29;20103;-57
2023/02/24 07:19:25;;;;;;;13.20;3.20;;;3.10;99.90;;;;;;4918128;29;20138;-59
2023/02/24 07:21:58;;;;;;;12.40;3.38;;;3.20;99.90;;;;;;4955544;28;20098;-59
2023/02/24 07:24:34;;;;;;;32.10;4.18;;;3.20;99.90;;;;;;4947116;29;20141;-66
2023/02/24 07:27:04;;;;;;;18.58;3.60;;;3.10;99.90;;;;;;4949358;29;20047;-55
2023/02/24 07:29:38;;;;;;;15.82;4.00;;;3.10;99.90;;;;;;4944330;28;20078;-57
2023/02/24 07:32:07;;;;;;;19.92;3.85;;;3.10;99.90;;;;;;4939627;29;20043;-58
2023/02/24 07:34:38;;;;;;;12.90;2.97;;;3.10;99.90;;;;;;4943098;28;20131;-57
2023/02/24 07:37:06;;;;;;;12.50;3.15;;;3.20;99.90;;;;;;4924261;29;20051;-57
2023/02/24 07:39:35;;;;;;;12.02;4.40;;;3.20;99.90;;;;;;4945846;28;20071;-57
2023/02/24 07:42:03;;;;;;;20.48;5.45;;;3.10;99.90;;;;;;4944455;29;20126;-56
2023/02/24 07:44:29;;;;;;;17.10;3.38;;;3.20;99.90;;;;;;4947690;28;20078;-62
2023/02/24 07:46:58;;;;;;;16.67;4.22;;;3.10;99.90;;;;;;4941621;29;20047;-58
2023/02/24 07:49:26;;;;;;;16.83;4.30;;;3.20;99.90;;;;;;4941138;29;20059;-58
2023/02/24 07:51:56;;;;;;;9.85;3.90;;;3.20;99.90;;;;;;4944505;28;20051;-61
2023/02/24 07:54:24;;;;;;;25.00;3.47;;;3.20;99.90;;;;;;4924941;29;20048;-55
2023/02/24 07:56:57;;;;;;;20.17;3.72;;;3.20;99.90;;;;;;4937652;28;20050;-58
2023/02/24 07:59:31;;;;;;;21.52;3.65;;;3.60;99.90;;;;;;4944121;28;20288;-58
2023/02/24 08:01:59;;;;;;;13.97;3.60;;;3.30;99.90;;;;;;4939939;28;20590;-57
2023/02/24 08:04:27;;;;;;;23.10;3.60;;;3.30;99.90;;;;;;4924121;29;20301;-60
2023/02/24 08:06:54;;;;;;;19.08;3.70;;;3.40;99.90;;;;;;4934933;29;20126;-57
2023/02/24 08:12:21;;;;;;;14.13;3.05;;;3.40;99.90;;;;;;4936916;29;20134;-57
2023/02/24 08:14:50;;;;;;;24.58;4.18;;;3.30;99.90;;;;;;4934406;29;20070;-57
2023/02/24 08:17:21;;;;;;;25.58;4.28;;;3.40;99.90;;;;;;4928683;29;20063;-57
2023/02/24 08:19:49;;;;;;;19.92;3.85;;;3.50;99.90;;;;;;4944603;29;20043;-58
2023/02/24 08:22:19;;;;;;;23.58;3.25;;;3.50;99.90;;;;;;4944447;28;20079;-56
2023/02/24 08:24:59;;;;;;;14.27;3.25;;;3.50;99.90;;;;;;4948006;28;20044;-57
2023/02/24 08:27:29;;;;;;;25.70;4.35;;;3.50;99.90;;;;;;4930019;29;20115;-59
2023/02/24 08:29:58;;;;;;;20.15;4.22;;;3.60;99.90;;;;;;4943381;28;20059;-56
2023/02/24 08:32:32;;;;;;;17.55;3.15;;;3.60;99.90;;;;;;4932234;29;20071;-56
2023/02/24 08:35:03;;;;;;;;;;;3.70;99.90;;;;;;4945975;29;20051;-58
2023/02/24 08:37:38;;;;;;;19.13;3.60;;;3.80;99.90;;;;;;4957980;28;19922;-58
2023/02/24 08:40:28;;;;;;;16.88;4.18;;;3.90;99.90;;;;;;4937194;28;20517;-58
2023/02/24 08:43:29;;;;;;;25.90;4.43;;;3.90;99.90;;;;;;4934801;29;20095;-56
2023/02/24 08:46:11;;;;;;;24.10;4.45;;;3.90;99.90;;;;;;4948800;29;20050;-58
2023/02/24 08:48:42;;;;;;;24.38;3.30;;;4.00;99.90;;;;;;4940420;29;20087;-58
2023/02/24 08:51:21;;;;;;;20.13;5.13;;;4.10;99.90;;;;;;4921403;29;20058;-60
2023/02/24 08:53:52;;;;;;;19.48;4.18;;;4.10;99.90;;;;;;4937567;29;20126;-56
2023/02/24 08:56:24;;;;;;;25.05;3.92;;;4.10;99.90;;;;;;4940267;28;20150;-55
2023/02/24 08:58:55;;;;;;;12.45;3.20;;;4.10;99.90;;;;;;4937559;29;20051;-58
2023/02/24 09:01:25;;;;;;;17.80;3.70;;;4.10;99.90;;;;;;4946745;28;20491;-58
2023/02/24 09:03:54;;;;;;;16.73;4.13;;;4.10;99.90;;;;;;4922085;29;20051;-56
2023/02/24 09:06:44;;;;;;;19.75;4.35;;;4.30;99.90;;;;;;4947373;29;20047;-57
2023/02/24 09:09:16;;;;;;;14.23;4.57;;;4.40;99.90;;;;;;4935567;28;20079;-57
2023/02/24 09:11:54;;;;;;;20.10;3.50;;;4.50;99.90;;;;;;4942555;28;20142;-57
2023/02/24 09:14:26;;;;;;;20.13;3.58;;;4.60;99.90;;;;;;4951177;28;20460;-56
2023/02/24 09:17:00;;;;;;;13.50;3.33;;;4.60;99.90;;;;;;4926080;29;20106;-59
2023/02/24 09:22:28;;;;;;;22.73;4.15;;;4.70;99.90;;;;;;4946552;29;20094;-57
2023/02/24 09:25:17;;;;;;;24.58;4.88;;;4.70;99.90;;;;;;4939443;29;20150;-57
2023/02/24 09:27:50;;;;;;;11.68;3.30;;;4.80;99.90;;;;;;4953859;28;20052;-57
2023/02/24 09:30:34;;;;;;;17.80;3.63;;;4.90;99.90;;;;;;4934202;29;20296;-55
2023/02/24 09:33:20;;;;;;;26.65;4.13;;;5.00;99.90;;;;;;4925152;28;20074;-55
2023/02/24 09:35:48;;;;;;;20.80;3.70;;;5.00;99.90;;;;;;4954129;28;20058;-55
2023/02/24 09:38:15;;;;;;;22.30;5.38;;;5.00;99.90;;;;;;4941491;29;20410;-56
2023/02/24 09:40:49;;;;;;;33.65;7.20;;;5.40;99.90;;;;;;4935735;29;20070;-56
2023/02/24 09:43:23;;;;;;;10.25;3.50;;;5.10;99.90;;;;;;4928131;29;20129;-57
2023/02/24 09:45:57;;;;;;;20.08;6.47;;;5.20;99.90;;;;;;4951624;28;20052;-57
2023/02/24 09:48:53;;;;;;;24.35;4.30;;;5.30;99.90;;;;;;4924016;29;20052;-54
2023/02/24 09:51:28;;;;;;;15.52;4.18;;;5.50;99.90;;;;;;4920474;29;20044;-57
2023/02/24 09:53:55;;;;;;;26.13;6.85;;;5.60;99.90;;;;;;4922570;29;20448;-58
2023/02/24 09:56:41;;;;;;;23.13;4.35;;;5.60;99.90;;;;;;4935713;29;20083;-58
2023/02/24 09:59:26;;;;;;;13.02;3.55;;;5.60;99.90;;;;;;4904692;29;20147;-57
2023/02/24 10:02:16;;;;;;;18.23;4.55;;;5.60;99.90;;;;;;4936304;29;20487;-58
2023/02/24 10:04:52;;;;;;;15.52;4.88;;;5.70;99.90;;;;;;4935533;29;20082;-56
2023/02/24 10:07:37;;;;;;;35.38;5.38;;;5.80;99.90;;;;;;4927015;29;20461;-56
2023/02/24 10:10:18;;;;;;;16.20;3.90;;;5.90;99.90;;;;;;4944310;28;20110;-58
2023/02/24 10:12:51;;;;;;;22.63;4.47;;;5.90;99.90;;;;;;4935438;29;20055;-57
2023/02/24 10:15:43;;;;;;;22.45;5.10;;;6.00;99.90;;;;;;4910629;28;20075;-57
2023/02/24 10:18:26;;;;;;;21.83;3.85;;;6.00;99.90;;;;;;4926602;29;20486;-57
2023/02/24 10:21:09;;;;;;;25.33;4.43;;;6.10;99.90;;;;;;4941575;28;20047;-58
2023/02/24 10:23:55;;;;;;;16.48;3.63;;;6.20;99.90;;;;;;4928198;29;20379;-61
2023/02/24 10:26:43;;;;;;;12.48;3.97;;;6.20;99.90;;;;;;4939290;29;20068;-58
2023/02/24 10:29:43;;;;;;;17.00;4.13;;;6.30;99.90;;;;;;4951989;28;20494;-58
2023/02/24 10:32:27;;;;;;;13.63;4.20;;;6.30;99.90;;;;;;4932218;29;20119;-59
2023/02/24 10:34:54;;;;;;;12.50;3.15;;;6.30;99.90;;;;;;4937302;28;20051;-62
2023/02/24 10:37:23;;;;;;;20.58;4.38;;;6.30;99.90;;;;;;4946146;29;20043;-56
2023/02/24 10:39:59;;;;;;;15.82;4.05;;;6.30;99.90;;;;;;4946306;29;20044;-58
2023/02/24 10:42:30;;;;;;;20.38;5.00;;;6.30;99.90;;;;;;4925091;29;20489;-58
2023/02/24 10:45:22;;;;;;;23.80;6.35;;;6.40;99.90;;;;;;4946682;29;20078;-58
2023/02/24 10:47:55;;;;;;;27.83;5.03;;;6.50;99.90;;;;;;4943062;29;20138;-59
2023/02/24 10:50:27;;;;;;;19.90;4.80;;;6.60;99.90;;;;;;4953069;28;20062;-57
2023/02/24 10:53:27;;;;;;;13.23;4.30;;;6.70;99.90;;;;;;4929285;29;20452;-56
2023/02/24 10:56:13;;;;;;;19.00;4.85;;;6.70;99.90;;;;;;4924533;29;20140;-56
2023/02/24 10:58:43;;;;;;;17.15;5.95;;;6.70;99.90;;;;;;4911941;28;20051;-57
2023/02/24 11:07:10;;;;;;;17.63;6.47;;;6.70;99.90;;;;;;4941382;29;20043;-57
2023/02/24 11:09:51;;;;;;;18.35;4.20;;;6.90;99.90;;;;;;4944551;29;20064;-57
2023/02/24 11:18:07;;;;;;;18.65;4.85;;;6.90;99.90;;;;;;4917808;29;20059;-59
2023/02/24 11:20:43;;;;;;;13.90;5.05;;;7.00;99.90;;;;;;4937748;29;20060;-57
2023/02/24 11:23:21;;;;;;;11.82;5.63;;;7.00;99.90;;;;;;4919352;28;20495;-57
2023/02/24 11:25:52;;;;;;;15.67;4.83;;;7.00;99.90;;;;;;4907801;29;20054;-58
2023/02/24 11:28:56;;;;;;;10.35;4.55;;;7.10;99.90;;;;;;4943760;29;20047;-54
2023/02/24 11:31:57;;;;;;;16.25;5.05;;;7.20;99.90;;;;;;4944943;28;20498;-56
2023/02/24 11:34:33;;;;;;;15.38;4.40;;;7.00;99.90;;;;;;4918098;29;20058;-56
2023/02/24 11:37:13;;;;;;;19.08;4.88;;;7.00;99.90;;;;;;4934438;29;20130;-57
2023/02/24 11:39:54;;;;;;;8.98;4.75;;;7.10;99.90;;;;;;4937061;29;20066;-56
2023/02/24 11:42:26;;;;;;;10.25;4.70;;;7.10;99.90;;;;;;4940698;29;20146;-57
2023/02/24 11:44:59;;;;;;;21.23;6.53;;;7.00;99.90;;;;;;4937491;28;20499;-59
2023/02/24 11:47:35;;;;;;;16.08;5.22;;;7.00;99.90;;;;;;4940003;29;20097;-56
2023/02/24 11:50:35;;;;;;;17.85;5.80;;;6.90;99.90;;;;;;4920469;29;20398;-59
2023/02/24 11:53:11;;;;;;;17.48;5.65;;;7.00;99.90;;;;;;4907114;29;20541;-55
2023/02/24 11:55:45;;;;;;;15.10;4.68;;;7.00;99.90;;;;;;4922580;28;20130;-57
2023/02/24 11:58:38;;;;;;;10.90;5.55;;;7.00;99.90;;;;;;4928087;29;20466;-57
2023/02/24 12:01:14;;;;;;;11.93;5.78;;;7.00;99.90;;;;;;4924914;29;20150;-57
2023/02/24 12:04:04;;;;;;;17.52;6.40;;;7.10;99.90;;;;;;4941621;28;20059;-59
2023/02/24 12:06:55;;;;;;;18.10;6.40;;;7.20;99.90;;;;;;4926349;29;20054;-58
2023/02/24 12:09:25;;;;;;;13.02;5.68;;;7.20;99.90;;;;;;4924866;28;20050;-59
2023/02/24 12:11:59;;;;;;;15.48;5.28;;;7.20;99.90;;;;;;4918513;29;20073;-57
2023/02/24 12:14:36;;;;;;;;;;;7.30;99.90;;;;;;4949199;28;20506;-58
2023/02/24 12:17:16;;;;;;;15.05;5.28;;;7.40;99.90;;;;;;4955639;28;20312;-59
2023/02/24 12:19:56;;;;;;;13.95;5.45;;;7.40;99.90;;;;;;4933985;28;20070;-60
2023/02/24 12:22:25;;;;;;;20.50;5.75;;;7.40;99.90;;;;;;4919423;29;20051;-58
2023/02/24 12:24:53;;;;;;;17.92;7.20;;;7.50;99.90;;;;;;4898778;29;20559;-58
2023/02/24 12:27:43;;;;;;;22.83;7.97;;;7.50;99.90;;;;;;4946994;28;20049;-58
2023/02/24 12:30:48;;;;;;;15.07;5.45;;;7.70;99.90;;;;;;4902286;29;20163;-58
2023/02/24 12:33:18;;;;;;;24.52;6.07;;;7.80;99.90;;;;;;4938930;29;20057;-57
2023/02/24 12:36:01;;;;;;;13.82;4.60;;;7.90;99.90;;;;;;4923346;29;20075;-58
2023/02/24 12:38:34;;;;;;;13.50;5.15;;;8.00;99.90;;;;;;4914297;29;20445;-60
2023/02/24 12:41:26;;;;;;;20.27;6.90;;;8.00;99.90;;;;;;4930716;29;20495;-57
2023/02/24 12:44:31;;;;;;;13.80;5.75;;;8.20;99.90;;;;;;4930901;29;20049;-57
2023/02/24 12:47:19;;;;;;;19.20;4.55;;;8.30;99.90;;;;;;4912183;28;20085;-58
2023/02/24 12:50:10;;;;;;;17.42;5.22;;;8.40;99.90;;;;;;4927747;29;20396;-57
2023/02/24 12:52:49;;;;;;;13.68;5.05;;;8.60;99.90;;;;;;4940698;29;20075;-58
2023/02/24 12:55:33;;;;;;;10.55;4.82;;;8.80;99.90;;;;;;4940254;29;20369;-59
2023/02/24 12:58:11;;;;;;;16.27;4.88;;;9.00;99.90;;;;;;4924775;29;20073;-57
2023/02/24 13:00:59;;;;;;;8.80;4.07;;;9.10;99.90;;;;;;4951295;28;20047;-59
2023/02/24 13:03:58;;;;;;;18.33;5.40;;;9.20;99.90;;;;;;4938128;29;20146;-58
2023/02/24 13:06:44;;;;;;;14.13;5.05;;;9.40;99.90;;;;;;4898050;29;20055;-57
2023/02/24 13:09:13;;;;;;;21.85;4.32;;;9.60;99.90;;;;;;4946845;28;20150;-58
2023/02/24 13:11:46;;;;;;;22.10;5.70;;;9.80;99.90;;;;;;4948014;29;20074;-59
2023/02/24 13:14:34;;;;;;;21.58;4.35;;;9.90;99.90;;;;;;4924759;29;20043;-59
2023/02/24 13:17:09;;;;;;;26.77;5.65;;;9.90;99.90;;;;;;4950874;28;20042;-59
2023/02/24 13:19:42;;;;;;;12.00;4.00;;;9.90;99.90;;;;;;4945722;29;20044;-59
2023/02/24 13:22:16;;;;;;;20.80;4.80;;;9.80;99.90;;;;;;4942534;28;20134;-60
2023/02/24 13:25:03;;;;;;;12.20;4.22;;;9.70;99.90;;;;;;4947428;29;20058;-58
2023/02/24 13:27:35;;;;;;;12.93;4.85;;;9.60;99.90;;;;;;4938575;28;20615;-58
2023/02/24 13:30:07;;;;;;;12.13;4.75;;;9.50;99.90;;;;;;4925306;29;20074;-58
2023/02/24 13:32:38;;;;;;;23.40;4.70;;;9.40;99.90;;;;;;4912458;28;20146;-59
2023/02/24 13:35:15;;;;;;;15.23;4.10;;;9.40;99.90;;;;;;4911799;29;20047;-58
2023/02/24 13:37:43;;;;;;;12.80;4.03;;;9.40;99.90;;;;;;4952185;28;20326;-58
2023/02/24 13:40:22;;;;;;;17.27;6.68;;;9.30;99.90;;;;;;4924407;29;20887;-59
2023/02/24 13:42:56;;;;;;;17.23;4.78;;;9.30;99.90;;;;;;4931253;29;20150;-58
2023/02/24 13:45:24;;;;;;;14.73;3.53;;;9.20;99.90;;;;;;4946838;29;20048;-57
2023/02/24 13:47:57;;;;;;;17.90;4.57;;;9.20;99.90;;;;;;4925675;29;20321;-59